createdAt,value
2022-11-30T00:00:24.928Z,107.00
2022-11-30T00:01:25.089Z,114.10
2022-11-30T00:02:25.356Z,104.20
2022-11-30T00:03:25.492Z,104.10
2022-11-30T00:04:25.561Z,109.90
2022-11-30T00:05:25.729Z,105.50
2022-11-30T00:06:25.888Z,109.30
2022-11-30T00:07:26.110Z,104.70
2022-11-30T00:08:26.165Z,103.40
2022-11-30T00:09:26.326Z,102.60
2022-11-30T00:10:26.495Z,102.70
2022-11-30T00:11:26.653Z,105.60
2022-11-30T00:12:26.847Z,109.80
2022-11-30T00:13:27.015Z,106.80
2022-11-30T00:14:27.168Z,102.10
2022-11-30T00:15:27.315Z,107.00
2022-11-30T00:16:27.633Z,112.20
2022-11-30T00:17:27.651Z,105.70
2022-11-30T00:18:27.806Z,117.70
2022-11-30T00:19:27.964Z,106.70
2022-11-30T00:20:28.128Z,107.70
2022-11-30T00:21:28.271Z,107.80
2022-11-30T00:22:28.451Z,105.20
2022-11-30T00:23:28.601Z,102.90
2022-11-30T00:24:28.762Z,113.60
2022-11-30T00:25:29.020Z,116.90
2022-11-30T00:26:29.119Z,105.50
2022-11-30T00:27:29.281Z,111.20
2022-11-30T00:28:29.442Z,110.40
2022-11-30T00:29:29.595Z,106.60
2022-11-30T00:30:29.782Z,107.70
2022-11-30T00:31:29.852Z,110.50
2022-11-30T00:32:30.040Z,106.80
2022-11-30T00:33:30.189Z,106.40
2022-11-30T00:34:30.358Z,104.50
2022-11-30T00:35:30.516Z,105.40
2022-11-30T00:36:30.668Z,111.20
2022-11-30T00:37:30.862Z,106.50
2022-11-30T00:38:31.018Z,105.90
2022-11-30T00:39:35.460Z,106.70
2022-11-30T00:40:31.359Z,104.30
2022-11-30T00:41:31.509Z,105.60
2022-11-30T00:42:31.679Z,105.50
2022-11-30T00:43:31.835Z,111.70
2022-11-30T00:44:31.992Z,107.00
2022-11-30T00:45:32.137Z,110.60
2022-11-30T00:46:32.332Z,107.50
2022-11-30T00:47:32.507Z,111.10
2022-11-30T00:48:32.665Z,109.20
2022-11-30T00:49:32.827Z,105.60
2022-11-30T00:50:32.985Z,104.30
2022-11-30T00:51:33.146Z,105.10
2022-11-30T00:52:33.330Z,105.00
2022-11-30T00:53:33.489Z,103.40
2022-11-30T00:54:33.664Z,106.50
2022-11-30T00:55:33.807Z,110.40
2022-11-30T00:56:33.973Z,110.60
2022-11-30T00:57:34.165Z,104.50
2022-11-30T00:58:34.316Z,108.30
2022-11-30T00:59:34.475Z,108.40
2022-11-30T01:00:34.655Z,113.10
2022-11-30T01:01:34.840Z,109.70
2022-11-30T01:02:35.075Z,106.10
2022-11-30T01:03:35.132Z,106.20
2022-11-30T01:04:35.291Z,105.80
2022-11-30T01:05:35.451Z,106.00
2022-11-30T01:06:35.608Z,103.20
2022-11-30T01:07:35.835Z,108.50
2022-11-30T01:08:35.960Z,107.70
2022-11-30T01:09:36.115Z,104.90
2022-11-30T01:10:36.276Z,108.60
2022-11-30T01:11:36.426Z,114.30
2022-11-30T01:12:36.607Z,109.60
2022-11-30T01:13:36.789Z,110.70
2022-11-30T01:14:36.943Z,110.20
2022-11-30T01:15:37.145Z,110.00
2022-11-30T01:16:37.188Z,106.10
2022-11-30T01:17:37.349Z,108.70
2022-11-30T01:18:37.525Z,107.20
2022-11-30T01:19:37.679Z,102.20
2022-11-30T01:20:37.842Z,108.20
2022-11-30T01:21:38.013Z,106.60
2022-11-30T01:22:38.210Z,109.40
2022-11-30T01:23:38.276Z,109.00
2022-11-30T01:24:38.455Z,107.70
2022-11-30T01:25:38.625Z,107.20
2022-11-30T01:26:38.793Z,104.00
2022-11-30T01:27:38.968Z,107.70
2022-11-30T01:28:39.136Z,106.80
2022-11-30T01:29:39.292Z,110.40
2022-11-30T01:30:39.522Z,112.50
2022-11-30T01:31:39.583Z,108.70
2022-11-30T01:32:39.762Z,113.30
2022-11-30T01:33:39.913Z,109.50
2022-11-30T01:34:40.074Z,109.50
2022-11-30T01:35:40.233Z,105.50
2022-11-30T01:36:40.403Z,109.00
2022-11-30T01:37:40.636Z,108.70
2022-11-30T01:38:40.682Z,108.80
2022-11-30T01:39:40.831Z,109.90
2022-11-30T01:40:41.006Z,115.40
2022-11-30T01:41:41.165Z,109.50
2022-11-30T01:42:41.348Z,109.80
2022-11-30T01:43:41.502Z,111.10
2022-11-30T01:44:41.685Z,108.30
2022-11-30T01:45:41.827Z,110.50
2022-11-30T01:46:41.998Z,106.80
2022-11-30T01:47:42.167Z,109.80
2022-11-30T01:48:42.321Z,106.20
2022-11-30T01:49:42.477Z,109.00
2022-11-30T01:50:42.633Z,111.60
2022-11-30T01:51:42.776Z,112.70
2022-11-30T01:52:42.953Z,107.30
2022-11-30T01:53:43.105Z,112.10
2022-11-30T01:54:43.268Z,110.70
2022-11-30T01:55:43.426Z,107.60
2022-11-30T01:56:43.590Z,110.40
2022-11-30T01:57:43.764Z,103.90
2022-11-30T01:58:43.938Z,109.10
2022-11-30T01:59:44.079Z,108.70
2022-11-30T02:00:44.251Z,105.60
2022-11-30T02:01:44.447Z,106.70
2022-11-30T02:02:44.636Z,112.30
2022-11-30T02:03:44.786Z,112.70
2022-11-30T02:04:45.243Z,112.40
2022-11-30T02:05:45.037Z,109.20
2022-11-30T02:06:45.209Z,107.20
2022-11-30T02:07:45.571Z,111.20
2022-11-30T02:08:45.633Z,110.30
2022-11-30T02:09:45.711Z,111.60
2022-11-30T02:10:45.867Z,110.70
2022-11-30T02:11:46.020Z,113.30
2022-11-30T02:12:46.188Z,109.00
2022-11-30T02:13:46.344Z,105.80
2022-11-30T02:14:46.823Z,108.90
2022-11-30T02:15:46.738Z,112.40
2022-11-30T02:16:46.828Z,112.50
2022-11-30T02:17:46.911Z,115.50
2022-11-30T02:18:47.072Z,111.80
2022-11-30T02:19:47.228Z,105.40
2022-11-30T02:20:47.391Z,108.70
2022-11-30T02:21:47.531Z,113.70
2022-11-30T02:22:47.692Z,110.90
2022-11-30T02:23:47.836Z,109.30
2022-11-30T02:24:48.326Z,108.00
2022-11-30T02:25:48.123Z,115.10
2022-11-30T02:26:48.292Z,112.00
2022-11-30T02:27:48.429Z,108.50
2022-11-30T02:28:48.636Z,113.80
2022-11-30T02:29:48.814Z,110.90
2022-11-30T02:30:49.022Z,112.20
2022-11-30T02:31:49.055Z,115.30
2022-11-30T02:32:49.228Z,111.30
2022-11-30T02:33:49.359Z,114.40
2022-11-30T02:34:49.858Z,108.20
2022-11-30T02:35:54.461Z,107.00
2022-11-30T02:36:50.778Z,112.90
2022-11-30T02:37:49.927Z,109.10
2022-11-30T02:38:50.093Z,110.40
2022-11-30T02:39:50.258Z,110.10
2022-11-30T02:40:50.413Z,111.00
2022-11-30T02:41:50.600Z,110.20
2022-11-30T02:42:50.775Z,108.80
2022-11-30T02:43:50.936Z,115.00
2022-11-30T02:44:51.107Z,110.00
2022-11-30T02:45:51.261Z,110.80
2022-11-30T02:46:51.426Z,112.80
2022-11-30T02:47:51.579Z,109.10
2022-11-30T02:48:51.753Z,117.40
2022-11-30T02:49:51.928Z,105.30
2022-11-30T02:50:52.094Z,108.70
2022-11-30T02:51:52.263Z,107.20
2022-11-30T02:52:52.426Z,110.80
2022-11-30T02:53:52.579Z,106.50
2022-11-30T02:54:52.775Z,111.00
2022-11-30T02:55:52.925Z,112.80
2022-11-30T02:56:53.092Z,105.70
2022-11-30T02:57:53.239Z,109.90
2022-11-30T02:58:53.413Z,117.30
2022-11-30T02:59:53.577Z,108.00
2022-11-30T03:00:53.755Z,111.40
2022-11-30T03:01:53.939Z,110.20
2022-11-30T03:02:54.101Z,110.90
2022-11-30T03:03:54.265Z,110.20
2022-11-30T03:04:54.438Z,112.00
2022-11-30T03:05:54.584Z,106.10
2022-11-30T03:06:54.751Z,114.00
2022-11-30T03:07:54.962Z,109.90
2022-11-30T03:08:55.024Z,112.30
2022-11-30T03:09:55.198Z,111.90
2022-11-30T03:10:55.374Z,109.80
2022-11-30T03:11:55.522Z,113.10
2022-11-30T03:12:55.691Z,108.60
2022-11-30T03:13:55.847Z,103.90
2022-11-30T03:14:56.043Z,110.80
2022-11-30T03:15:56.232Z,107.50
2022-11-30T03:16:56.369Z,110.50
2022-11-30T03:17:56.529Z,110.00
2022-11-30T03:18:56.681Z,115.30
2022-11-30T03:19:56.850Z,112.50
2022-11-30T03:20:57.013Z,111.90
2022-11-30T03:21:57.172Z,106.60
2022-11-30T03:22:57.340Z,108.10
2022-11-30T03:23:57.501Z,112.10
2022-11-30T03:24:57.679Z,111.90
2022-11-30T03:25:57.829Z,115.90
2022-11-30T03:26:58.002Z,110.40
2022-11-30T03:27:58.146Z,109.90
2022-11-30T03:28:58.321Z,106.90
2022-11-30T03:29:58.490Z,107.40
2022-11-30T03:30:58.699Z,106.20
2022-11-30T03:31:58.841Z,107.90
2022-11-30T03:32:59.002Z,107.40
2022-11-30T03:33:59.147Z,107.40
2022-11-30T03:34:59.339Z,108.60
2022-11-30T03:35:59.489Z,107.70
2022-11-30T03:36:59.654Z,107.20
2022-11-30T03:37:59.818Z,107.50
2022-11-30T03:38:59.974Z,108.20
2022-11-30T03:40:00.177Z,109.30
2022-11-30T03:41:00.313Z,109.80
2022-11-30T03:42:00.468Z,107.20
2022-11-30T03:43:07.684Z,110.50
2022-11-30T03:44:00.821Z,106.90
2022-11-30T03:45:01.003Z,106.90
2022-11-30T03:46:01.154Z,107.50
2022-11-30T03:47:01.272Z,109.00
2022-11-30T03:48:01.428Z,107.90
2022-11-30T03:49:01.589Z,109.70
2022-11-30T03:50:01.772Z,107.90
2022-11-30T03:51:01.938Z,109.60
2022-11-30T03:52:02.091Z,111.50
2022-11-30T03:53:02.261Z,110.40
2022-11-30T03:54:02.416Z,108.40
2022-11-30T03:55:02.612Z,112.90
2022-11-30T03:56:02.770Z,108.30
2022-11-30T03:57:02.946Z,110.00
2022-11-30T03:58:03.098Z,111.20
2022-11-30T03:59:03.279Z,106.90
2022-11-30T04:00:03.459Z,111.70
2022-11-30T04:01:03.627Z,105.20
2022-11-30T04:02:03.838Z,105.30
2022-11-30T04:03:04.052Z,107.40
2022-11-30T04:04:04.183Z,110.30
2022-11-30T04:05:04.372Z,107.30
2022-11-30T04:06:04.547Z,111.50
2022-11-30T04:07:04.716Z,109.40
2022-11-30T04:08:04.876Z,108.80
2022-11-30T04:09:05.066Z,107.40
2022-11-30T04:10:08.433Z,107.70
2022-11-30T04:11:05.415Z,107.10
2022-11-30T04:12:05.578Z,107.20
2022-11-30T04:13:05.748Z,107.40
2022-11-30T04:14:05.900Z,111.50
2022-11-30T04:15:06.081Z,108.20
2022-11-30T04:16:06.265Z,105.00
2022-11-30T04:17:06.394Z,111.80
2022-11-30T04:18:06.549Z,108.70
2022-11-30T04:19:06.712Z,108.40
2022-11-30T04:20:06.904Z,103.20
2022-11-30T04:21:07.089Z,108.40
2022-11-30T04:22:07.274Z,108.10
2022-11-30T04:23:07.445Z,109.00
2022-11-30T04:24:08.403Z,103.60
2022-11-30T04:25:07.822Z,110.40
2022-11-30T04:26:07.984Z,105.80
2022-11-30T04:27:08.166Z,106.40
2022-11-30T04:28:08.327Z,107.00
2022-11-30T04:29:08.480Z,100.20
2022-11-30T04:30:08.668Z,105.80
2022-11-30T04:31:08.848Z,108.30
2022-11-30T04:32:09.029Z,105.10
2022-11-30T04:33:09.201Z,104.00
2022-11-30T04:34:09.350Z,103.50
2022-11-30T04:35:09.533Z,109.80
2022-11-30T04:36:09.699Z,107.40
2022-11-30T04:37:09.858Z,107.30
2022-11-30T04:38:10.026Z,106.80
2022-11-30T04:39:10.185Z,104.90
2022-11-30T04:40:10.368Z,110.30
2022-11-30T04:41:10.517Z,108.90
2022-11-30T04:42:10.688Z,107.80
2022-11-30T04:43:10.843Z,112.70
2022-11-30T04:44:11.027Z,107.10
2022-11-30T04:45:11.205Z,105.00
2022-11-30T04:46:11.417Z,107.00
2022-11-30T04:47:11.493Z,105.30
2022-11-30T04:48:11.670Z,107.30
2022-11-30T04:49:11.819Z,107.80
2022-11-30T04:50:12.005Z,109.30
2022-11-30T04:51:13.151Z,107.70
2022-11-30T04:52:12.336Z,110.00
2022-11-30T04:53:12.495Z,110.80
2022-11-30T04:54:12.677Z,107.00
2022-11-30T04:55:12.861Z,110.20
2022-11-30T04:56:13.033Z,107.10
2022-11-30T04:57:13.193Z,109.60
2022-11-30T04:58:13.384Z,104.20
2022-11-30T04:59:13.560Z,109.20
2022-11-30T05:00:13.770Z,111.30
2022-11-30T05:01:13.893Z,108.40
2022-11-30T05:02:14.058Z,110.70
2022-11-30T05:03:14.208Z,110.00
2022-11-30T05:04:14.394Z,111.40
2022-11-30T05:05:14.515Z,113.40
2022-11-30T05:06:14.669Z,112.20
2022-11-30T05:07:14.759Z,109.70
2022-11-30T05:08:14.925Z,113.50
2022-11-30T05:09:15.108Z,111.00
2022-11-30T05:10:15.299Z,110.70
2022-11-30T05:11:15.489Z,113.20
2022-11-30T05:12:15.681Z,110.60
2022-11-30T05:13:15.851Z,110.50
2022-11-30T05:14:16.037Z,108.30
2022-11-30T05:15:16.241Z,108.50
2022-11-30T05:16:16.427Z,110.40
2022-11-30T05:17:16.594Z,110.20
2022-11-30T05:18:16.764Z,113.60
2022-11-30T05:19:16.932Z,109.60
2022-11-30T05:20:17.145Z,104.30
2022-11-30T05:21:17.197Z,109.20
2022-11-30T05:22:17.380Z,111.10
2022-11-30T05:23:17.563Z,112.90
2022-11-30T05:24:17.733Z,109.60
2022-11-30T05:25:17.935Z,111.30
2022-11-30T05:26:18.016Z,109.70
2022-11-30T05:27:22.475Z,110.70
2022-11-30T05:28:18.344Z,110.10
2022-11-30T05:29:18.507Z,112.00
2022-11-30T05:30:18.683Z,108.50
2022-11-30T05:31:18.881Z,106.60
2022-11-30T05:32:19.021Z,111.90
2022-11-30T05:33:19.201Z,107.00
2022-11-30T05:34:19.377Z,105.50
2022-11-30T05:35:19.560Z,106.30
2022-11-30T05:36:19.771Z,113.10
2022-11-30T05:37:19.958Z,106.30
2022-11-30T05:38:20.147Z,110.70
2022-11-30T05:39:20.366Z,106.40
2022-11-30T05:40:20.433Z,108.90
2022-11-30T05:41:20.639Z,110.80
2022-11-30T05:42:20.835Z,104.40
2022-11-30T05:43:20.938Z,115.30
2022-11-30T05:44:22.001Z,109.00
2022-11-30T05:45:21.206Z,112.60
2022-11-30T05:46:21.488Z,110.30
2022-11-30T05:47:21.568Z,105.30
2022-11-30T05:48:21.849Z,107.90
2022-11-30T05:49:21.935Z,103.20
2022-11-30T05:50:22.151Z,107.10
2022-11-30T05:51:22.357Z,104.50
2022-11-30T05:52:22.452Z,113.60
2022-11-30T05:53:22.571Z,104.80
2022-11-30T05:54:22.651Z,111.30
2022-11-30T05:55:22.838Z,113.00
2022-11-30T05:56:23.029Z,109.00
2022-11-30T05:57:23.210Z,109.40
2022-11-30T05:58:23.440Z,107.90
2022-11-30T05:59:23.627Z,108.40
2022-11-30T06:00:23.713Z,106.10
2022-11-30T06:01:23.907Z,106.60
2022-11-30T06:02:28.151Z,107.70
2022-11-30T06:03:24.352Z,109.50
2022-11-30T06:04:24.440Z,112.50
2022-11-30T06:05:24.614Z,107.00
2022-11-30T06:06:24.823Z,108.50
2022-11-30T06:07:25.046Z,110.10
2022-11-30T06:08:25.137Z,108.40
2022-11-30T06:09:25.214Z,107.00
2022-11-30T06:10:25.438Z,106.20
2022-11-30T06:11:25.537Z,111.70
2022-11-30T06:12:25.729Z,109.10
2022-11-30T06:13:28.847Z,103.90
2022-11-30T06:14:26.115Z,108.90
2022-11-30T06:15:26.327Z,107.70
2022-11-30T06:16:26.448Z,104.70
2022-11-30T06:17:26.512Z,109.00
2022-11-30T06:18:26.726Z,108.00
2022-11-30T06:19:26.798Z,111.60
2022-11-30T06:20:26.998Z,110.00
2022-11-30T06:21:27.169Z,108.60
2022-11-30T06:22:27.346Z,111.10
2022-11-30T06:23:27.549Z,109.70
2022-11-30T06:24:27.730Z,122.00
2022-11-30T06:25:27.907Z,111.40
2022-11-30T06:26:28.133Z,113.90
2022-11-30T06:27:28.193Z,110.50
2022-11-30T06:28:28.391Z,107.80
2022-11-30T06:29:28.571Z,105.90
2022-11-30T06:30:28.753Z,110.00
2022-11-30T06:31:28.986Z,104.70
2022-11-30T06:32:29.034Z,104.30
2022-11-30T06:33:29.415Z,104.50
2022-11-30T06:34:29.318Z,106.10
2022-11-30T06:35:29.428Z,110.20
2022-11-30T06:36:35.475Z,109.30
2022-11-30T06:37:30.777Z,109.80
2022-11-30T06:38:30.004Z,112.60
2022-11-30T06:39:58.046Z,107.20
2022-11-30T06:40:31.264Z,111.50
2022-11-30T06:41:30.384Z,109.00
2022-11-30T06:42:30.512Z,107.40
2022-11-30T06:43:30.620Z,104.40
2022-11-30T06:44:30.729Z,106.50
2022-11-30T06:45:30.922Z,111.90
2022-11-30T06:46:31.248Z,116.60
2022-11-30T06:47:31.118Z,113.60
2022-11-30T06:48:31.348Z,105.80
2022-11-30T06:49:31.432Z,106.70
2022-11-30T06:50:31.541Z,106.10
2022-11-30T06:51:31.651Z,103.10
2022-11-30T06:52:31.772Z,104.90
2022-11-30T06:53:31.907Z,114.70
2022-11-30T06:54:32.013Z,117.00
2022-11-30T06:55:32.128Z,122.00
2022-11-30T06:56:32.237Z,119.10
2022-11-30T06:57:32.360Z,126.20
2022-11-30T06:58:32.476Z,126.30
2022-11-30T06:59:32.570Z,133.70
2022-11-30T07:00:32.767Z,125.60
2022-11-30T07:01:32.797Z,135.20
2022-11-30T07:02:32.884Z,129.10
2022-11-30T07:03:32.995Z,118.90
2022-11-30T07:04:33.158Z,124.20
2022-11-30T07:05:33.237Z,128.40
2022-11-30T07:06:33.345Z,121.80
2022-11-30T07:07:33.445Z,118.20
2022-11-30T07:08:33.565Z,118.70
2022-11-30T07:09:33.662Z,123.40
2022-11-30T07:10:33.760Z,114.50
2022-11-30T07:11:33.972Z,120.20
2022-11-30T07:12:34.079Z,112.70
2022-11-30T07:13:34.189Z,114.30
2022-11-30T07:14:34.290Z,108.30
2022-11-30T07:15:34.383Z,107.80
2022-11-30T07:16:34.493Z,105.40
2022-11-30T07:17:34.568Z,107.20
2022-11-30T07:18:34.786Z,107.60
2022-11-30T07:19:34.860Z,113.30
2022-11-30T07:20:35.072Z,104.20
2022-11-30T07:21:35.194Z,105.70
2022-11-30T07:22:35.267Z,110.50
2022-11-30T07:23:35.376Z,109.90
2022-11-30T07:24:35.480Z,110.30
2022-11-30T07:25:35.582Z,106.30
2022-11-30T07:26:35.691Z,102.70
2022-11-30T07:27:35.772Z,106.80
2022-11-30T07:28:35.893Z,107.10
2022-11-30T07:29:35.975Z,111.30
2022-11-30T07:30:36.194Z,110.70
2022-11-30T07:31:36.326Z,107.30
2022-11-30T07:32:36.394Z,111.40
2022-11-30T07:33:36.625Z,105.10
2022-11-30T07:34:36.723Z,104.00
2022-11-30T07:35:36.838Z,103.20
2022-11-30T07:36:36.936Z,101.00
2022-11-30T07:37:37.003Z,107.60
2022-11-30T07:38:37.223Z,101.10
2022-11-30T07:39:37.312Z,103.20
2022-11-30T07:40:37.514Z,105.40
2022-11-30T07:41:37.497Z,101.40
2022-11-30T07:42:37.710Z,104.00
2022-11-30T07:43:37.795Z,107.50
2022-11-30T07:44:37.886Z,102.60
2022-11-30T07:45:38.111Z,112.00
2022-11-30T07:46:38.180Z,102.60
2022-11-30T07:47:38.256Z,99.10
2022-11-30T07:48:38.460Z,103.10
2022-11-30T07:49:38.531Z,102.40
2022-11-30T07:50:38.731Z,99.30
2022-11-30T07:51:38.855Z,99.30
2022-11-30T07:52:38.948Z,100.60
2022-11-30T07:53:39.182Z,99.90
2022-11-30T07:54:39.288Z,101.00
2022-11-30T07:55:39.383Z,103.00
2022-11-30T07:56:39.533Z,97.70
2022-11-30T07:57:39.600Z,94.50
2022-11-30T07:58:39.806Z,99.90
2022-11-30T07:59:39.877Z,102.00
2022-11-30T08:00:40.101Z,95.60
2022-11-30T08:01:40.345Z,99.30
2022-11-30T08:02:40.311Z,94.10
2022-11-30T08:03:40.430Z,99.70
2022-11-30T08:04:40.559Z,95.30
2022-11-30T08:05:40.649Z,97.60
2022-11-30T08:06:40.837Z,102.20
2022-11-30T08:07:41.099Z,101.30
2022-11-30T08:08:41.205Z,99.70
2022-11-30T08:09:41.279Z,96.50
2022-11-30T08:10:41.489Z,93.90
2022-11-30T08:11:41.553Z,94.60
2022-11-30T08:12:41.758Z,95.90
2022-11-30T08:13:41.859Z,97.10
2022-11-30T08:15:17.589Z,98.90
2022-11-30T08:15:43.061Z,90.60
2022-11-30T08:16:42.283Z,95.30
2022-11-30T08:17:42.362Z,93.20
2022-11-30T08:18:46.491Z,99.80
2022-11-30T08:19:42.542Z,99.80
2022-11-30T08:20:48.431Z,91.30
2022-11-30T08:21:43.846Z,92.60
2022-11-30T08:22:43.014Z,97.70
2022-11-30T08:23:43.289Z,95.90
2022-11-30T08:24:43.385Z,93.70
2022-11-30T08:25:43.569Z,95.50
2022-11-30T08:26:43.751Z,96.50
2022-11-30T08:27:43.933Z,93.70
2022-11-30T08:28:44.130Z,93.90
2022-11-30T08:29:44.214Z,93.40
2022-11-30T08:30:44.461Z,94.30
2022-11-30T08:31:44.489Z,97.40
2022-11-30T08:32:44.661Z,99.30
2022-11-30T08:33:44.870Z,94.10
2022-11-30T08:34:45.072Z,99.20
2022-11-30T08:35:45.013Z,94.40
2022-11-30T08:36:47.231Z,92.60
2022-11-30T08:37:46.275Z,95.70
2022-11-30T08:38:45.474Z,93.20
2022-11-30T08:39:45.535Z,93.00
2022-11-30T08:40:45.694Z,94.10
2022-11-30T08:41:45.868Z,93.80
2022-11-30T08:42:46.037Z,93.40
2022-11-30T08:43:46.246Z,93.70
2022-11-30T08:44:46.304Z,93.80
2022-11-30T08:45:46.515Z,94.40
2022-11-30T08:46:53.893Z,93.30
2022-11-30T08:47:47.706Z,98.00
2022-11-30T08:48:46.874Z,93.60
2022-11-30T08:49:47.076Z,90.10
2022-11-30T08:50:47.145Z,93.40
2022-11-30T08:52:16.047Z,95.10
2022-11-30T08:52:48.414Z,97.60
2022-11-30T08:53:47.633Z,93.20
2022-11-30T08:54:48.218Z,92.10
2022-11-30T08:55:47.788Z,91.80
2022-11-30T08:56:47.951Z,97.60
2022-11-30T08:57:48.136Z,92.90
2022-11-30T08:58:48.337Z,98.80
2022-11-30T08:59:48.447Z,103.30
2022-11-30T09:00:48.487Z,98.80
2022-11-30T09:01:48.746Z,93.30
2022-11-30T09:02:48.849Z,95.40
2022-11-30T09:03:48.986Z,100.90
2022-11-30T09:04:49.658Z,106.10
2022-11-30T09:05:49.343Z,93.80
2022-11-30T09:06:49.583Z,93.00
2022-11-30T09:07:49.734Z,96.70
2022-11-30T09:08:49.812Z,96.20
2022-11-30T09:09:49.990Z,99.20
2022-11-30T09:10:50.144Z,95.70
2022-11-30T09:11:51.283Z,94.80
2022-11-30T09:12:50.435Z,91.80
2022-11-30T09:13:50.844Z,93.90
2022-11-30T09:14:57.897Z,92.50
2022-11-30T09:15:51.997Z,88.50
2022-11-30T09:16:51.091Z,89.90
2022-11-30T09:17:51.144Z,95.10
2022-11-30T09:18:51.281Z,95.00
2022-11-30T09:19:51.452Z,89.40
2022-11-30T09:20:51.480Z,90.00
2022-11-30T09:21:52.615Z,98.00
2022-11-30T09:22:51.759Z,94.20
2022-11-30T09:23:51.911Z,95.50
2022-11-30T09:24:52.122Z,98.50
2022-11-30T09:25:53.020Z,91.90
2022-11-30T09:26:52.369Z,88.70
2022-11-30T09:27:52.568Z,89.40
2022-11-30T09:28:52.721Z,85.40
2022-11-30T09:29:52.777Z,91.30
2022-11-30T09:30:53.082Z,89.10
2022-11-30T09:31:53.009Z,93.60
2022-11-30T09:32:53.668Z,90.00
2022-11-30T09:33:53.291Z,88.20
2022-11-30T09:34:53.699Z,87.00
2022-11-30T09:35:53.589Z,90.20
2022-11-30T09:36:53.765Z,91.90
2022-11-30T09:37:53.916Z,89.80
2022-11-30T09:38:54.178Z,92.70
2022-11-30T09:39:54.245Z,96.00
2022-11-30T09:40:54.386Z,91.10
2022-11-30T09:41:54.564Z,85.60
2022-11-30T09:43:01.763Z,89.30
2022-11-30T09:43:54.885Z,91.70
2022-11-30T09:44:59.964Z,87.60
2022-11-30T09:45:55.319Z,85.30
2022-11-30T09:46:55.320Z,90.00
2022-11-30T09:47:55.474Z,90.40
2022-11-30T09:48:55.739Z,88.50
2022-11-30T09:49:55.775Z,88.90
2022-11-30T09:50:55.915Z,92.20
2022-11-30T09:51:57.083Z,87.10
2022-11-30T09:52:56.221Z,85.90
2022-11-30T09:53:56.403Z,90.50
2022-11-30T09:54:56.531Z,86.70
2022-11-30T09:55:56.685Z,90.90
2022-11-30T09:56:56.822Z,88.50
2022-11-30T09:57:56.972Z,86.90
2022-11-30T09:58:57.108Z,87.60
2022-11-30T09:59:57.251Z,89.90
2022-11-30T10:00:57.402Z,90.40
2022-11-30T10:01:57.712Z,90.00
2022-11-30T10:02:57.724Z,90.30
2022-11-30T10:03:57.880Z,89.50
2022-11-30T10:04:57.899Z,85.70
2022-11-30T10:05:58.081Z,93.70
2022-11-30T10:06:58.209Z,89.40
2022-11-30T10:07:58.424Z,95.10
2022-11-30T10:08:58.482Z,91.60
2022-11-30T10:10:29.843Z,94.00
2022-11-30T10:10:59.719Z,90.10
2022-11-30T10:11:58.857Z,91.30
2022-11-30T10:12:58.980Z,86.00
2022-11-30T10:13:59.129Z,94.50
2022-11-30T10:15:00.501Z,88.40
2022-11-30T10:15:59.385Z,86.80
2022-11-30T10:16:59.487Z,85.50
2022-11-30T10:17:59.636Z,88.70
2022-11-30T10:18:59.766Z,92.30
2022-11-30T10:19:59.914Z,89.60
2022-11-30T10:21:00.057Z,88.90
2022-11-30T10:22:00.227Z,88.80
2022-11-30T10:23:00.296Z,90.50
2022-11-30T10:24:00.414Z,87.40
2022-11-30T10:25:00.548Z,88.20
2022-11-30T10:26:00.663Z,92.60
2022-11-30T10:27:00.786Z,110.30
2022-11-30T10:28:17.807Z,93.20
2022-11-30T10:29:01.987Z,88.10
2022-11-30T10:30:01.147Z,85.20
2022-11-30T10:31:01.336Z,87.80
2022-11-30T10:32:01.377Z,90.30
2022-11-30T10:33:01.475Z,93.00
2022-11-30T10:34:01.615Z,90.10
2022-11-30T10:35:01.737Z,82.00
2022-11-30T10:36:01.977Z,85.30
2022-11-30T10:37:01.945Z,85.00
2022-11-30T10:38:02.084Z,88.00
2022-11-30T10:39:02.216Z,85.40
2022-11-30T10:40:02.342Z,88.00
2022-11-30T10:41:02.464Z,84.10
2022-11-30T10:42:02.604Z,88.00
2022-11-30T10:43:02.733Z,83.70
2022-11-30T10:44:02.866Z,89.50
2022-11-30T10:45:02.997Z,88.90
2022-11-30T10:46:03.108Z,82.30
2022-11-30T10:47:03.220Z,83.80
2022-11-30T10:48:03.345Z,86.10
2022-11-30T10:49:03.487Z,83.40
2022-11-30T10:50:03.628Z,82.60
2022-11-30T10:51:03.751Z,86.40
2022-11-30T10:52:03.884Z,85.10
2022-11-30T10:53:04.005Z,82.40
2022-11-30T10:54:04.139Z,81.50
2022-11-30T10:55:05.282Z,79.80
2022-11-30T10:56:04.445Z,81.40
2022-11-30T10:57:04.569Z,86.20
2022-11-30T10:58:04.723Z,86.50
2022-11-30T10:59:04.850Z,86.60
2022-11-30T11:00:04.993Z,84.30
2022-11-30T11:01:05.110Z,84.60
2022-11-30T11:02:05.344Z,89.70
2022-11-30T11:03:05.424Z,85.10
2022-11-30T11:04:05.556Z,83.00
2022-11-30T11:05:05.667Z,82.80
2022-11-30T11:06:05.791Z,86.20
2022-11-30T11:07:06.009Z,79.40
2022-11-30T11:08:07.405Z,81.00
2022-11-30T11:09:06.052Z,86.60
2022-11-30T11:10:06.215Z,82.90
2022-11-30T11:11:06.326Z,84.50
2022-11-30T11:12:06.519Z,83.20
2022-11-30T11:13:06.615Z,86.40
2022-11-30T11:14:06.715Z,83.50
2022-11-30T11:15:06.840Z,91.00
2022-11-30T11:16:07.000Z,84.20
2022-11-30T11:17:07.049Z,82.10
2022-11-30T11:18:07.206Z,89.00
2022-11-30T11:19:07.334Z,82.60
2022-11-30T11:20:07.489Z,85.40
2022-11-30T11:21:07.635Z,83.40
2022-11-30T11:22:07.742Z,81.40
2022-11-30T11:23:07.882Z,85.60
2022-11-30T11:24:08.016Z,88.30
2022-11-30T11:25:08.161Z,88.20
2022-11-30T11:26:08.304Z,85.80
2022-11-30T11:27:08.430Z,83.50
2022-11-30T11:28:08.575Z,87.10
2022-11-30T11:29:08.698Z,103.70
2022-11-30T11:30:08.820Z,89.80
2022-11-30T11:31:08.986Z,95.10
2022-11-30T11:32:09.114Z,91.80
2022-11-30T11:33:09.245Z,91.50
2022-11-30T11:34:09.370Z,94.90
2022-11-30T11:35:09.484Z,103.70
2022-11-30T11:36:09.625Z,114.40
2022-11-30T11:37:09.758Z,97.60
2022-11-30T11:38:09.908Z,98.70
2022-11-30T11:39:10.046Z,108.20
2022-11-30T11:40:10.201Z,105.50
2022-11-30T11:41:10.322Z,129.30
2022-11-30T11:42:10.446Z,105.10
2022-11-30T11:43:10.587Z,96.80
2022-11-30T11:44:10.717Z,122.40
2022-11-30T11:45:10.836Z,110.20
2022-11-30T11:46:11.131Z,97.60
2022-11-30T11:47:11.047Z,96.20
2022-11-30T11:48:12.804Z,100.10
2022-11-30T11:49:11.315Z,102.40
2022-11-30T11:50:11.484Z,98.60
2022-11-30T11:51:11.587Z,101.50
2022-11-30T11:52:11.717Z,94.40
2022-11-30T11:53:11.905Z,108.80
2022-11-30T11:54:12.004Z,104.70
2022-11-30T11:55:12.005Z,96.40
2022-11-30T11:56:12.128Z,97.00
2022-11-30T11:57:12.247Z,112.20
2022-11-30T11:58:12.382Z,104.90
2022-11-30T11:59:12.528Z,101.80
2022-11-30T12:00:16.117Z,99.20
2022-11-30T12:01:38.742Z,98.50
2022-11-30T12:02:13.864Z,97.10
2022-11-30T12:03:12.966Z,105.10
2022-11-30T12:04:13.064Z,96.40
2022-11-30T12:05:13.060Z,100.80
2022-11-30T12:06:13.201Z,98.90
2022-11-30T12:07:16.728Z,98.00
2022-11-30T12:08:13.518Z,100.10
2022-11-30T12:09:13.625Z,100.60
2022-11-30T12:10:43.651Z,92.40
2022-11-30T12:11:14.857Z,98.00
2022-11-30T12:12:13.980Z,95.90
2022-11-30T12:13:14.113Z,96.90
2022-11-30T12:14:14.240Z,97.10
2022-11-30T12:15:14.373Z,99.20
2022-11-30T12:16:14.614Z,100.20
2022-11-30T12:17:14.651Z,95.40
2022-11-30T12:18:22.326Z,96.80
2022-11-30T12:19:15.889Z,101.30
2022-11-30T12:20:15.032Z,100.10
2022-11-30T12:21:15.161Z,106.30
2022-11-30T12:22:15.296Z,103.20
2022-11-30T12:23:15.448Z,101.00
2022-11-30T12:24:15.580Z,97.00
2022-11-30T12:25:15.695Z,106.90
2022-11-30T12:26:15.838Z,101.40
2022-11-30T12:27:15.963Z,101.00
2022-11-30T12:28:16.117Z,100.30
2022-11-30T12:29:16.263Z,99.40
2022-11-30T12:30:16.391Z,104.90
2022-11-30T12:31:16.561Z,101.60
2022-11-30T12:32:16.665Z,103.70
2022-11-30T12:33:16.802Z,104.10
2022-11-30T12:34:16.925Z,99.10
2022-11-30T12:35:17.034Z,104.00
2022-11-30T12:36:17.174Z,101.80
2022-11-30T12:37:17.297Z,102.70
2022-11-30T12:38:17.434Z,100.40